Time,TemperatureF,DewpointF,PressureIn,WindDirection,WindDirectionDegrees,WindSpeedMPH,WindSpeedGustMPH,Humidity,HourlyPrecipIn,Conditions,Clouds,dailyrainin,SoftwareType,DateUTC
2013-01-14 00:04:00,50.0,48.0,30.06,NNE,29,1.0,5.0,94,0.00,,,0.01,,2013-01-14 05:04:00,
2013-01-14 00:12:00,50.0,48.0,30.06,NNE,29,1.0,5.0,94,0.00,,,0.01,,2013-01-14 05:12:00,
2013-01-14 00:22:00,49.0,47.0,30.06,North,1,1.0,4.0,94,0.00,,,0.01,,2013-01-14 05:22:00,
2013-01-14 00:33:00,49.0,47.0,30.06,North,1,1.0,4.0,94,0.00,,,0.01,,2013-01-14 05:33:00,
2013-01-14 00:43:00,49.0,47.0,30.06,North,1,1.0,4.0,94,0.00,,,0.01,,2013-01-14 05:43:00,
2013-01-14 00:53:00,49.0,47.0,30.06,North,1,0.0,3.0,94,0.00,,,0.01,,2013-01-14 05:53:00,
2013-01-14 01:03:00,49.0,47.0,30.06,North,1,0.0,3.0,94,0.00,,,0.01,,2013-01-14 06:03:00,
2013-01-14 01:12:00,49.0,47.0,30.06,North,1,0.0,3.0,94,0.00,,,0.01,,2013-01-14 06:12:00,
2013-01-14 01:23:00,49.0,48.0,30.05,NNW,345,0.0,3.0,95,0.00,,,0.01,,2013-01-14 06:23:00,
2013-01-14 01:33:00,49.0,48.0,30.05,NNW,345,0.0,3.0,95,0.00,,,0.01,,2013-01-14 06:33:00,
2013-01-14 01:43:00,49.0,48.0,30.05,NNW,345,0.0,3.0,95,0.00,,,0.01,,2013-01-14 06:43:00,
2013-01-14 01:53:00,49.0,48.0,30.05,North,4,0.0,4.0,95,0.00,,,0.01,,2013-01-14 06:53:00,
2013-01-14 02:02:00,49.0,48.0,30.05,North,4,0.0,4.0,95,0.00,,,0.01,,2013-01-14 07:02:00,
2013-01-14 02:12:00,49.0,48.0,30.05,North,4,0.0,4.0,95,0.00,,,0.01,,2013-01-14 07:12:00,
2013-01-14 02:23:00,49.0,48.0,30.05,NNW,343,0.0,4.0,95,0.00,,,0.01,,2013-01-14 07:23:00,
2013-01-14 02:33:00,49.0,48.0,30.05,NNW,343,0.0,4.0,95,0.00,,,0.01,,2013-01-14 07:33:00,
2013-01-14 02:43:00,49.0,48.0,30.05,NNW,343,0.0,4.0,95,0.00,,,0.01,,2013-01-14 07:43:00,
2013-01-14 02:53:00,49.0,48.0,30.05,NE,44,0.0,2.0,96,0.00,,,0.01,,2013-01-14 07:53:00,
2013-01-14 03:02:00,49.0,48.0,30.05,NE,44,0.0,2.0,96,0.00,,,0.01,,2013-01-14 08:02:00,
2013-01-14 03:12:00,49.0,48.0,30.05,NE,44,0.0,2.0,96,0.00,,,0.01,,2013-01-14 08:12:00,
2013-01-14 03:22:00,49.0,48.0,30.04,North,1,1.0,4.0,96,0.00,,,0.01,,2013-01-14 08:22:00,
2013-01-14 03:33:00,49.0,48.0,30.04,North,1,1.0,4.0,96,0.00,,,0.01,,2013-01-14 08:33:00,
2013-01-14 03:43:00,49.0,48.0,30.04,North,1,1.0,4.0,96,0.00,,,0.01,,2013-01-14 08:43:00,
2013-01-14 03:53:00,49.0,48.0,30.03,WNW,292,1.0,5.0,96,0.00,,,0.01,,2013-01-14 08:53:00,
2013-01-14 04:03:00,49.0,48.0,30.03,WNW,292,1.0,5.0,96,0.00,,,0.01,,2013-01-14 09:03:00,
2013-01-14 04:12:00,49.0,48.0,30.03,WNW,292,1.0,5.0,96,0.00,,,0.01,,2013-01-14 09:12:00,
2013-01-14 04:23:00,49.0,48.0,30.01,NNE,13,1.0,8.0,96,0.00,,,0.01,,2013-01-14 09:23:00,
2013-01-14 04:33:00,49.0,48.0,30.01,NNE,13,1.0,8.0,96,0.00,,,0.01,,2013-01-14 09:33:00,
2013-01-14 04:43:00,49.0,48.0,30.01,NNE,13,1.0,8.0,96,0.00,,,0.01,,2013-01-14 09:43:00,
2013-01-14 04:53:00,49.0,48.0,30.00,NNE,24,3.0,9.0,96,0.00,,,0.01,,2013-01-14 09:53:00,
2013-01-14 05:02:00,49.0,48.0,30.00,NNE,24,3.0,9.0,96,0.00,,,0.01,,2013-01-14 10:02:00,
2013-01-14 05:12:00,49.0,48.0,30.00,NNE,24,3.0,9.0,96,0.00,,,0.01,,2013-01-14 10:12:00,
2013-01-14 05:23:00,49.0,48.0,30.00,North,359,0.0,8.0,96,0.00,,,0.01,,2013-01-14 10:23:00,
2013-01-14 05:32:00,49.0,48.0,30.00,North,359,0.0,8.0,96,0.00,,,0.01,,2013-01-14 10:32:00,
2013-01-14 05:43:00,49.0,48.0,30.00,North,359,0.0,8.0,96,0.00,,,0.01,,2013-01-14 10:43:00,
2013-01-14 05:53:00,49.0,48.0,30.01,North,4,1.0,4.0,95,0.00,,,0.01,,2013-01-14 10:53:00,
2013-01-14 06:02:00,49.0,48.0,30.01,North,4,1.0,4.0,95,0.00,,,0.01,,2013-01-14 11:02:00,
2013-01-14 06:12:00,49.0,48.0,30.01,North,4,1.0,4.0,95,0.00,,,0.01,,2013-01-14 11:12:00,
2013-01-14 06:22:00,50.0,49.0,30.00,North,6,2.0,7.0,95,0.00,,,0.01,,2013-01-14 11:22:00,
2013-01-14 06:33:00,50.0,49.0,30.00,North,6,2.0,7.0,95,0.00,,,0.01,,2013-01-14 11:33:00,
2013-01-14 06:43:00,50.0,49.0,30.00,North,6,2.0,7.0,95,0.00,,,0.01,,2013-01-14 11:43:00,
2013-01-14 06:53:00,50.0,49.0,29.93,NW,307,1.0,10.0,95,0.00,,,0.01,,2013-01-14 11:53:00,
2013-01-14 07:03:00,50.0,49.0,29.93,NW,307,1.0,10.0,95,0.00,,,0.01,,2013-01-14 12:03:00,
2013-01-14 07:12:00,50.0,49.0,29.93,NW,307,1.0,10.0,95,0.00,,,0.01,,2013-01-14 12:12:00,
2013-01-14 07:23:00,51.0,50.0,29.93,West,281,2.0,8.0,95,0.00,,,0.01,,2013-01-14 12:23:00,
2013-01-14 07:33:00,51.0,50.0,29.93,West,281,2.0,8.0,95,0.00,,,0.01,,2013-01-14 12:33:00,
2013-01-14 07:43:00,51.0,50.0,29.93,West,281,2.0,8.0,95,0.00,,,0.01,,2013-01-14 12:43:00,
2013-01-14 07:53:00,51.0,49.0,29.98,NNE,20,1.0,5.0,94,0.00,,,0.01,,2013-01-14 12:53:00,
2013-01-14 08:03:00,51.0,49.0,29.98,NNE,20,1.0,5.0,94,0.00,,,0.01,,2013-01-14 13:03:00,
2013-01-14 08:13:00,51.0,49.0,29.98,NNE,20,1.0,5.0,94,0.00,,,0.01,,2013-01-14 13:13:00,
2013-01-14 08:23:00,51.0,49.0,30.01,NNW,345,0.0,4.0,94,0.00,,,0.01,,2013-01-14 13:23:00,
2013-01-14 08:33:00,51.0,49.0,30.01,NNW,345,0.0,4.0,94,0.00,,,0.01,,2013-01-14 13:33:00,
2013-01-14 08:43:00,51.0,49.0,30.01,NNW,345,0.0,4.0,94,0.00,,,0.01,,2013-01-14 13:43:00,
2013-01-14 08:53:00,51.0,49.0,30.03,ENE,65,0.0,1.0,94,0.00,,,0.01,,2013-01-14 13:53:00,
2013-01-14 09:03:00,51.0,49.0,30.03,ENE,65,0.0,1.0,94,0.00,,,0.01,,2013-01-14 14:03:00,
2013-01-14 09:13:00,51.0,49.0,30.03,ENE,65,0.0,1.0,94,0.00,,,0.01,,2013-01-14 14:13:00,
2013-01-14 09:23:00,51.0,49.0,30.04,NNE,25,0.0,2.0,94,0.00,,,0.01,,2013-01-14 14:23:00,
2013-01-14 09:33:00,51.0,49.0,30.04,NNE,25,0.0,2.0,94,0.00,,,0.01,,2013-01-14 14:33:00,
2013-01-14 09:43:00,51.0,49.0,30.04,NNE,25,0.0,2.0,94,0.00,,,0.01,,2013-01-14 14:43:00,
2013-01-14 09:53:00,51.0,49.0,30.06,NNW,344,1.0,3.0,94,0.00,,,0.01,,2013-01-14 14:53:00,
2013-01-14 10:03:00,51.0,49.0,30.06,NNW,344,1.0,3.0,94,0.00,,,0.01,,2013-01-14 15:03:00,
2013-01-14 10:12:00,51.0,49.0,30.06,NNW,344,1.0,3.0,94,0.00,,,0.01,,2013-01-14 15:12:00,
2013-01-14 10:23:00,53.0,51.0,30.07,North,1,2.0,7.0,94,0.00,,,0.01,,2013-01-14 15:23:00,
2013-01-14 10:33:00,53.0,51.0,30.07,North,1,2.0,7.0,94,0.00,,,0.01,,2013-01-14 15:33:00,
2013-01-14 10:43:00,53.0,51.0,30.07,North,1,2.0,7.0,94,0.00,,,0.01,,2013-01-14 15:43:00,
2013-01-14 10:53:00,54.0,51.0,30.07,NNE,18,2.0,7.0,89,0.00,,,0.01,,2013-01-14 15:53:00,
2013-01-14 11:03:00,54.0,51.0,30.07,NNE,18,2.0,7.0,89,0.00,,,0.01,,2013-01-14 16:03:00,
2013-01-14 11:13:00,54.0,51.0,30.07,NNE,18,2.0,7.0,89,0.00,,,0.01,,2013-01-14 16:13:00,
2013-01-14 11:23:00,55.0,51.0,30.06,NNE,25,3.0,7.0,86,0.00,,,0.01,,2013-01-14 16:23:00,
2013-01-14 11:33:00,55.0,51.0,30.06,NNE,25,3.0,7.0,86,0.00,,,0.01,,2013-01-14 16:33:00,
2013-01-14 11:43:00,55.0,51.0,30.06,NNE,25,3.0,7.0,86,0.00,,,0.01,,2013-01-14 16:43:00,
2013-01-14 11:53:00,56.0,51.0,30.05,NNE,29,2.0,8.0,83,0.00,,,0.01,,2013-01-14 16:53:00,
2013-01-14 12:03:00,56.0,51.0,30.05,NNE,29,2.0,8.0,83,0.00,,,0.01,,2013-01-14 17:03:00,
2013-01-14 12:12:00,56.0,51.0,30.05,NNE,29,2.0,8.0,83,0.00,,,0.01,,2013-01-14 17:12:00,
2013-01-14 12:23:00,58.0,51.0,30.05,NNE,17,3.0,9.0,77,0.00,,,0.01,,2013-01-14 17:23:00,
2013-01-14 12:33:00,58.0,51.0,30.05,NNE,17,3.0,9.0,77,0.00,,,0.01,,2013-01-14 17:33:00,
2013-01-14 12:43:00,58.0,51.0,30.05,NNE,17,3.0,9.0,77,0.00,,,0.01,,2013-01-14 17:43:00,
2013-01-14 12:54:00,59.0,48.0,30.04,NE,39,5.0,9.0,68,0.00,,,0.01,,2013-01-14 17:54:00,
2013-01-14 13:03:00,59.0,48.0,30.04,NE,39,5.0,9.0,68,0.00,,,0.01,,2013-01-14 18:03:00,
2013-01-14 13:13:00,59.0,48.0,30.04,NE,39,5.0,9.0,68,0.00,,,0.01,,2013-01-14 18:13:00,
2013-01-14 13:23:00,61.0,48.0,30.05,NE,34,3.0,10.0,63,0.00,,,0.00,,2013-01-14 18:23:00,
2013-01-14 13:33:00,61.0,48.0,30.05,NE,34,3.0,10.0,63,0.00,,,0.00,,2013-01-14 18:33:00,
2013-01-14 13:43:00,61.0,48.0,30.05,NE,34,3.0,10.0,63,0.00,,,0.00,,2013-01-14 18:43:00,
2013-01-14 13:53:00,61.0,42.0,30.07,NE,34,7.0,14.0,49,0.00,,,0.00,,2013-01-14 18:53:00,
2013-01-14 14:03:00,61.0,42.0,30.07,NE,34,7.0,14.0,49,0.00,,,0.00,,2013-01-14 19:03:00,
2013-01-14 14:13:00,61.0,42.0,30.07,NE,34,7.0,14.0,49,0.00,,,0.00,,2013-01-14 19:13:00,
2013-01-14 14:22:00,60.0,43.0,30.09,East,79,4.0,11.0,54,0.00,,,0.00,,2013-01-14 19:22:00,
2013-01-14 14:33:00,60.0,43.0,30.09,East,79,4.0,11.0,54,0.00,,,0.00,,2013-01-14 19:33:00,
2013-01-14 14:43:00,60.0,43.0,30.09,East,79,4.0,11.0,54,0.00,,,0.00,,2013-01-14 19:43:00,
2013-01-14 14:53:00,58.0,42.0,30.11,North,7,5.0,10.0,56,0.00,,,0.00,,2013-01-14 19:53:00,
2013-01-14 15:03:00,58.0,42.0,30.11,North,7,5.0,10.0,56,0.00,,,0.00,,2013-01-14 20:03:00,
2013-01-14 15:13:00,58.0,42.0,30.11,North,7,5.0,10.0,56,0.00,,,0.00,,2013-01-14 20:13:00,
2013-01-14 15:23:00,57.0,40.0,30.14,NNE,20,8.0,13.0,52,0.00,,,0.00,,2013-01-14 20:23:00,
2013-01-14 15:33:00,57.0,40.0,30.14,NNE,20,8.0,13.0,52,0.00,,,0.00,,2013-01-14 20:33:00,
2013-01-14 15:43:00,57.0,40.0,30.14,NNE,20,8.0,13.0,52,0.00,,,0.00,,2013-01-14 20:43:00,
2013-01-14 15:53:00,55.0,39.0,30.15,NE,56,2.0,8.0,54,0.00,,,0.00,,2013-01-14 20:53:00,
2013-01-14 16:03:00,55.0,39.0,30.15,NE,56,2.0,8.0,54,0.00,,,0.00,,2013-01-14 21:03:00,
2013-01-14 16:13:00,55.0,39.0,30.15,NE,56,2.0,8.0,54,0.00,,,0.00,,2013-01-14 21:13:00,
2013-01-14 16:23:00,53.0,37.0,30.17,NE,35,3.0,7.0,55,0.00,,,0.00,,2013-01-14 21:23:00,
2013-01-14 16:33:00,53.0,37.0,30.17,NE,35,3.0,7.0,55,0.00,,,0.00,,2013-01-14 21:33:00,
2013-01-14 16:43:00,53.0,37.0,30.17,NE,35,3.0,7.0,55,0.00,,,0.00,,2013-01-14 21:43:00,
2013-01-14 16:53:00,52.0,35.0,30.18,SE,125,2.0,8.0,52,0.00,,,0.00,,2013-01-14 21:53:00,
2013-01-14 17:03:00,52.0,35.0,30.18,SE,125,2.0,8.0,52,0.00,,,0.00,,2013-01-14 22:03:00,
2013-01-14 17:12:00,52.0,35.0,30.18,SE,125,2.0,8.0,52,0.00,,,0.00,,2013-01-14 22:12:00,
2013-01-14 17:23:00,50.0,35.0,30.19,East,82,2.0,6.0,56,0.00,,,0.00,,2013-01-14 22:23:00,
2013-01-14 17:33:00,50.0,35.0,30.19,East,82,2.0,6.0,56,0.00,,,0.00,,2013-01-14 22:33:00,
2013-01-14 17:43:00,50.0,35.0,30.19,East,82,2.0,6.0,56,0.00,,,0.00,,2013-01-14 22:43:00,
2013-01-14 17:53:00,49.0,34.0,30.20,East,96,1.0,5.0,57,0.00,,,0.00,,2013-01-14 22:53:00,
2013-01-14 18:03:00,49.0,34.0,30.20,East,96,1.0,5.0,57,0.00,,,0.00,,2013-01-14 23:03:00,
2013-01-14 18:12:00,49.0,34.0,30.20,East,96,1.0,5.0,57,0.00,,,0.00,,2013-01-14 23:12:00,
2013-01-14 18:23:00,48.0,35.0,30.19,East,96,0.0,2.0,60,0.00,,,0.00,,2013-01-14 23:23:00,
2013-01-14 18:33:00,48.0,35.0,30.19,East,96,0.0,2.0,60,0.00,,,0.00,,2013-01-14 23:33:00,
2013-01-14 18:43:00,48.0,35.0,30.19,East,96,0.0,2.0,60,0.00,,,0.00,,2013-01-14 23:43:00,
2013-01-14 18:53:00,46.0,34.0,30.22,ESE,111,2.0,4.0,62,0.00,,,0.00,,2013-01-14 23:53:00,
2013-01-14 19:03:00,46.0,34.0,30.22,ESE,111,2.0,4.0,62,0.00,,,0.00,,2013-01-15 00:03:00,
2013-01-14 19:12:00,46.0,34.0,30.22,ESE,111,2.0,4.0,62,0.00,,,0.00,,2013-01-15 00:12:00,
2013-01-14 19:23:00,45.0,32.0,30.23,ESE,117,0.0,3.0,60,0.00,,,0.00,,2013-01-15 00:23:00,
2013-01-14 19:33:00,45.0,32.0,30.23,ESE,117,0.0,3.0,60,0.00,,,0.00,,2013-01-15 00:33:00,
2013-01-14 19:43:00,45.0,32.0,30.23,ESE,117,0.0,3.0,60,0.00,,,0.00,,2013-01-15 00:43:00,
2013-01-14 19:53:00,44.0,31.0,30.26,ESE,103,1.0,2.0,61,0.00,,,0.00,,2013-01-15 00:53:00,
2013-01-14 20:02:00,44.0,31.0,30.26,ESE,103,1.0,2.0,61,0.00,,,0.00,,2013-01-15 01:02:00,
2013-01-14 20:12:00,44.0,31.0,30.26,ESE,103,1.0,2.0,61,0.00,,,0.00,,2013-01-15 01:12:00,
2013-01-14 20:22:00,45.0,29.0,30.27,East,79,4.0,6.0,54,0.00,,,0.00,,2013-01-15 01:22:00,
2013-01-14 20:32:00,45.0,29.0,30.27,East,79,4.0,6.0,54,0.00,,,0.00,,2013-01-15 01:32:00,
2013-01-14 20:43:00,45.0,29.0,30.27,East,79,4.0,6.0,54,0.00,,,0.00,,2013-01-15 01:43:00,
2013-01-14 20:52:00,44.0,29.0,30.27,East,97,0.0,6.0,55,0.00,,,0.00,,2013-01-15 01:52:00,
2013-01-14 21:02:00,44.0,29.0,30.27,East,97,0.0,6.0,55,0.00,,,0.00,,2013-01-15 02:02:00,
2013-01-14 21:03:00,43.0,28.0,30.28,ESE,115,0.0,5.0,56,0.00,,,0.00,,2013-01-15 02:03:00,
2013-01-14 21:12:00,44.0,29.0,30.27,East,97,0.0,6.0,55,0.00,,,0.00,,2013-01-15 02:12:00,
2013-01-14 21:23:00,43.0,28.0,30.28,ESE,115,0.0,5.0,56,0.00,,,0.00,,2013-01-15 02:23:00,
2013-01-14 21:33:00,43.0,28.0,30.28,ESE,115,0.0,5.0,56,0.00,,,0.00,,2013-01-15 02:33:00,
2013-01-14 21:43:00,43.0,28.0,30.28,ESE,115,0.0,5.0,56,0.00,,,0.00,,2013-01-15 02:43:00,
2013-01-14 21:53:00,43.0,28.0,30.28,ESE,115,0.0,5.0,56,0.00,,,0.00,,2013-01-15 02:53:00,
2013-01-14 22:22:00,42.0,29.0,30.28,SE,133,1.0,7.0,60,0.00,,,0.00,,2013-01-15 03:22:00,
2013-01-14 22:33:00,42.0,29.0,30.28,SE,133,1.0,7.0,60,0.00,,,0.00,,2013-01-15 03:33:00,
2013-01-14 22:43:00,42.0,29.0,30.28,SE,133,1.0,7.0,60,0.00,,,0.00,,2013-01-15 03:43:00,
2013-01-14 22:53:00,42.0,30.0,30.31,ESE,120,1.0,4.0,61,0.00,,,0.00,,2013-01-15 03:53:00,
2013-01-14 23:02:00,42.0,30.0,30.31,ESE,120,1.0,4.0,61,0.00,,,0.00,,2013-01-15 04:02:00,
2013-01-14 23:12:00,42.0,30.0,30.31,ESE,120,1.0,4.0,61,0.00,,,0.00,,2013-01-15 04:12:00,
2013-01-14 23:22:00,41.0,28.0,30.30,ESE,122,1.0,8.0,60,0.00,,,0.00,,2013-01-15 04:22:00,
2013-01-14 23:32:00,41.0,28.0,30.30,ESE,122,1.0,8.0,60,0.00,,,0.00,,2013-01-15 04:32:00,
2013-01-14 23:42:00,41.0,28.0,30.30,ESE,122,1.0,8.0,60,0.00,,,0.00,,2013-01-15 04:42:00,
2013-01-14 23:52:00,40.0,28.0,30.32,ENE,78,1.0,4.0,61,0.00,,,0.00,,2013-01-15 04:52:00,